Pagrindinis puslapis
METAR-TAF:

METAR-TAF

Oro uostai :

Čengdu, Kinija

platuma: 30-40N, ilguma: 104-01E, Aukštis: 508 m

Dabartinis oras

Ataskaita buvo paskelbta 1 valandą ir 13 minutes, ne 12:00 UTC
Vėjas 4 kt nuo kintamojo kryptimis
Temperatūra 13°C
Drėgmė 72%
Slėgis 1022 hPa
Matomumas 10 km arba daugiau
Išsisklaidę debesys ne aukštis 3000 ft

METAR: ZUUU 211200Z VRB02MPS 9999 SCT030 13/08 Q1022 NOSIG

Laikas: 21:13 (13:13 UTC)

Prognozė

Ataskaita buvo paskelbta 5 valandos ir 1 minutes, ne 08:12 UTC
Prognozė galioja nuo 21 metu 12 UTC su 22 metu 12 UTC
Vėjas 6 kt iš Pietų/Pietvakarių
Matomumas: 4000 m
Išsisklaidę debesys ne aukštis 5000 ft
rūkana

TAF: ZUUU 210812Z 2112/2212 20003MPS 4000 BR SCT050 TX15/2207Z TN09/2122Z

Orai ataskaitas ir orų prognozės (METAR, TAF).

turimą stotys yra geltonos ir raudonos taškus žemėlapyje.

Perkelti pele per norėdami pamatyti stoties vardą.

Tada spustelėkite, norėdami matyti oro stebėjimo ir prognozės.

Norėdami pakeisti žemėlapį: spustelėkite ant žalios mygtukų su juodo kryžiaus žemyn,; žalią mygtuką su brūkšneliu, jei norite nutolinti; arba žalių rodyklių gretimoms žemėlapius.


METAR-TAF: